createdAt,value
2019-02-11T00:01:18.062Z,96630.83
2019-02-11T00:03:44.573Z,96646.94
2019-02-11T00:06:11.100Z,96652.52
2019-02-11T00:08:37.573Z,96659.13
2019-02-11T00:11:04.168Z,96654.87
2019-02-11T00:13:30.828Z,96670.87
2019-02-11T00:15:57.351Z,96679.08
2019-02-11T00:18:24.101Z,96689.07
2019-02-11T00:20:51.752Z,96691.63
2019-02-11T00:23:18.558Z,96696.56
2019-02-11T00:25:45.173Z,96698.27
2019-02-11T00:28:11.666Z,96710.41
2019-02-11T00:30:38.199Z,96720.77
2019-02-11T00:33:06.405Z,96727.32
2019-02-11T00:35:32.993Z,96744.66
2019-02-11T00:37:59.558Z,96756.81
2019-02-11T00:40:26.107Z,96767.20
2019-02-11T00:42:52.624Z,96784.28
2019-02-11T00:45:19.175Z,96782.78
2019-02-11T00:47:45.836Z,96808.09
2019-02-11T00:50:12.414Z,96817.05
2019-02-11T00:52:39.077Z,96828.42
2019-02-11T00:55:05.823Z,96838.41
2019-02-11T00:57:32.533Z,96825.55
2019-02-11T00:59:59.250Z,96846.13
2019-02-11T01:02:25.830Z,96855.70
2019-02-11T01:04:53.650Z,96860.53
2019-02-11T01:07:20.415Z,96864.14
2019-02-11T01:09:47.015Z,96874.20
2019-02-11T01:12:13.647Z,96882.03
2019-02-11T01:14:41.416Z,96904.95
2019-02-11T01:17:08.033Z,96903.77
2019-02-11T01:19:34.941Z,96901.25
2019-02-11T01:22:01.851Z,96909.26
2019-02-11T01:24:28.583Z,96909.73
2019-02-11T01:26:55.226Z,96923.63
2019-02-11T01:29:21.860Z,96927.56
2019-02-11T01:31:48.478Z,96939.75
2019-02-11T01:34:15.078Z,96938.42
2019-02-11T01:36:42.054Z,96941.09
2019-02-11T01:39:08.612Z,96939.80
2019-02-11T01:41:35.203Z,96944.23
2019-02-11T01:44:01.890Z,96944.27
2019-02-11T01:46:28.542Z,96947.75
2019-02-11T01:48:55.141Z,96947.78
2019-02-11T01:51:22.354Z,96947.34
2019-02-11T01:53:50.074Z,96952.52
2019-02-11T01:56:16.725Z,96958.19
2019-02-11T01:58:44.758Z,96966.38
2019-02-11T02:01:11.363Z,96968.47
2019-02-11T02:03:38.091Z,96979.73
2019-02-11T02:06:04.651Z,96980.58
2019-02-11T02:08:32.604Z,96985.80
2019-02-11T02:10:59.183Z,96985.80
2019-02-11T02:13:25.892Z,96993.93
2019-02-11T02:15:53.856Z,96999.63
2019-02-11T02:18:21.423Z,97004.00
2019-02-11T02:20:47.937Z,97020.86
2019-02-11T02:23:14.532Z,97028.23
2019-02-11T02:25:41.416Z,97038.54
2019-02-11T02:28:08.025Z,97045.44
2019-02-11T02:30:34.635Z,97042.05
2019-02-11T02:33:01.689Z,97049.45
2019-02-11T02:35:28.271Z,97062.42
2019-02-11T02:37:54.891Z,97075.42
2019-02-11T02:40:53.993Z,97075.89
2019-02-11T02:43:21.245Z,97082.00
2019-02-11T02:45:48.116Z,97087.22
2019-02-11T02:48:14.765Z,97087.18
2019-02-11T02:50:41.361Z,97102.75
2019-02-11T02:53:08.456Z,97116.12
2019-02-11T02:55:37.573Z,97118.34
2019-02-11T02:58:04.201Z,97124.48
2019-02-11T03:00:30.932Z,97134.94
2019-02-11T03:02:58.195Z,97148.79
2019-02-11T03:05:24.797Z,97145.31
2019-02-11T03:07:51.578Z,97156.59
2019-02-11T03:10:18.358Z,97157.47
2019-02-11T03:12:45.154Z,97168.31
2019-02-11T03:15:11.781Z,97178.23
2019-02-11T03:17:38.462Z,97181.33
2019-02-11T03:20:12.255Z,97186.92
2019-02-11T03:22:39.223Z,97191.20
2019-02-11T03:25:05.942Z,97196.83
2019-02-11T03:27:32.639Z,97211.58
2019-02-11T03:30:00.693Z,97214.61
2019-02-11T03:32:27.559Z,97218.50
2019-02-11T03:34:54.118Z,97218.05
2019-02-11T03:37:20.669Z,97227.59
2019-02-11T03:39:47.619Z,97232.78
2019-02-11T03:42:14.267Z,97237.16
2019-02-11T03:44:40.914Z,97242.30
2019-02-11T03:47:07.683Z,97249.67
2019-02-11T03:49:34.621Z,97253.94
2019-02-11T03:52:01.362Z,97256.97
2019-02-11T03:54:28.109Z,97264.72
2019-02-11T03:56:55.045Z,97264.73
2019-02-11T03:59:23.525Z,97270.77
2019-02-11T04:01:51.601Z,97269.08
2019-02-11T04:04:18.241Z,97278.55
2019-02-11T04:06:44.972Z,97283.73
2019-02-11T04:09:11.653Z,97292.39
2019-02-11T04:11:38.405Z,97296.70
2019-02-11T04:14:05.401Z,97292.39
2019-02-11T04:16:32.058Z,97308.79
2019-02-11T04:18:59.196Z,97317.42
2019-02-11T04:21:26.742Z,97322.59
2019-02-11T04:23:53.538Z,97326.00
2019-02-11T04:26:21.395Z,97331.14
2019-02-11T04:28:48.062Z,97337.14
2019-02-11T04:31:14.715Z,97331.09
2019-02-11T04:34:00.181Z,97337.98
2019-02-11T04:36:27.118Z,97344.50
2019-02-11T04:38:53.965Z,97344.52
2019-02-11T04:41:21.589Z,97349.24
2019-02-11T04:43:48.515Z,97352.20
2019-02-11T04:46:15.513Z,97354.80
2019-02-11T04:48:42.531Z,97356.97
2019-02-11T04:51:09.338Z,97361.25
2019-02-11T04:53:36.013Z,97362.09
2019-02-11T04:56:03.774Z,97364.66
2019-02-11T04:58:30.662Z,97370.27
2019-02-11T05:00:57.375Z,97375.91
2019-02-11T05:03:24.178Z,97376.73
2019-02-11T05:05:52.703Z,97377.57
2019-02-11T05:08:19.599Z,97386.61
2019-02-11T05:10:46.409Z,97390.42
2019-02-11T05:13:15.762Z,97389.98
2019-02-11T05:15:42.765Z,97402.95
2019-02-11T05:18:09.305Z,97412.03
2019-02-11T05:20:35.900Z,97412.08
2019-02-11T05:23:02.791Z,97418.98
2019-02-11T05:25:29.778Z,97427.64
2019-02-11T05:27:56.433Z,97429.41
2019-02-11T05:30:23.096Z,97434.16
2019-02-11T05:32:50.133Z,97436.36
2019-02-11T05:35:16.780Z,97438.95
2019-02-11T05:37:44.193Z,97444.55
2019-02-11T05:40:11.364Z,97445.86
2019-02-11T05:42:39.338Z,97454.52
2019-02-11T05:45:06.473Z,97463.61
2019-02-11T05:47:33.304Z,97468.34
2019-02-11T05:49:59.962Z,97470.92
2019-02-11T05:52:26.544Z,97471.81
2019-02-11T05:54:53.170Z,97472.67
2019-02-11T05:57:19.751Z,97474.84
2019-02-11T05:59:46.428Z,97491.69
2019-02-11T06:02:14.965Z,97492.56
2019-02-11T06:04:41.997Z,97491.70
2019-02-11T06:07:09.255Z,97497.31
2019-02-11T06:09:35.964Z,97503.75
2019-02-11T06:12:02.686Z,97512.40
2019-02-11T06:14:29.546Z,97514.11
2019-02-11T06:16:56.524Z,97535.67
2019-02-11T06:19:23.285Z,97538.27
2019-02-11T06:21:49.852Z,97547.33
2019-02-11T06:24:16.564Z,97553.83
2019-02-11T06:26:43.214Z,97565.03
2019-02-11T06:29:10.024Z,97558.09
2019-02-11T06:31:36.918Z,97563.31
2019-02-11T06:34:04.448Z,97566.36
2019-02-11T06:36:32.961Z,97579.28
2019-02-11T06:39:01.977Z,97579.70
2019-02-11T06:41:28.640Z,97582.30
2019-02-11T06:43:55.485Z,97603.08
2019-02-11T06:46:22.227Z,97599.63
2019-02-11T06:48:48.978Z,97609.12
2019-02-11T06:51:15.726Z,97609.09
2019-02-11T06:53:45.886Z,97621.23
2019-02-11T06:56:12.884Z,97624.67
2019-02-11T06:58:39.955Z,97641.97
2019-02-11T07:01:06.661Z,97643.66
2019-02-11T07:03:33.763Z,97651.05
2019-02-11T07:06:00.617Z,97658.38
2019-02-11T07:08:27.276Z,97658.36
2019-02-11T07:10:55.789Z,97666.97
2019-02-11T07:13:23.661Z,97674.80
2019-02-11T07:15:50.430Z,97670.94
2019-02-11T07:18:17.519Z,97671.81
2019-02-11T07:20:44.308Z,97677.83
2019-02-11T07:23:11.081Z,97676.06
2019-02-11T07:25:38.527Z,97689.04
2019-02-11T07:28:05.253Z,97693.31
2019-02-11T07:30:32.137Z,97694.62
2019-02-11T07:32:58.811Z,97714.94
2019-02-11T07:35:25.593Z,97707.98
2019-02-11T07:37:52.832Z,97709.70
2019-02-11T07:40:19.613Z,97717.48
2019-02-11T07:42:55.038Z,97717.49
2019-02-11T07:45:30.075Z,97730.05
2019-02-11T07:47:56.190Z,97733.02
2019-02-11T07:50:22.887Z,97736.06
2019-02-11T07:52:50.030Z,97738.69
2019-02-11T07:55:17.857Z,97741.70
2019-02-11T07:57:45.065Z,97761.59
2019-02-11T08:00:12.640Z,97764.61
2019-02-11T08:02:40.347Z,97768.03
2019-02-11T08:05:08.665Z,97777.93
2019-02-11T08:07:36.094Z,97780.53
2019-02-11T08:10:03.748Z,97782.25
2019-02-11T08:12:36.801Z,97795.63
2019-02-11T08:15:06.402Z,97793.00
2019-02-11T08:17:36.256Z,97795.59
2019-02-11T08:20:05.374Z,97797.75
2019-02-11T08:22:33.051Z,97804.19
2019-02-11T08:25:01.465Z,97811.34
2019-02-11T08:27:28.793Z,97815.13
2019-02-11T08:29:55.352Z,97826.59
2019-02-11T08:32:22.049Z,97830.93
2019-02-11T08:34:58.439Z,97830.56
2019-02-11T08:37:25.077Z,97844.06
2019-02-11T08:39:51.766Z,97847.98
2019-02-11T08:42:18.519Z,97847.56
2019-02-11T08:44:54.219Z,97851.95
2019-02-11T08:47:21.136Z,97851.61
2019-02-11T08:49:47.776Z,97858.68
2019-02-11T08:52:14.476Z,97867.41
2019-02-11T08:54:41.427Z,97872.17
2019-02-11T08:57:08.525Z,97874.36
2019-02-11T08:59:35.587Z,97882.97
2019-02-11T09:02:02.731Z,97880.33
2019-02-11T09:04:38.322Z,97882.44
2019-02-11T09:07:13.496Z,97878.48
2019-02-11T09:09:50.431Z,97887.53
2019-02-11T09:12:26.902Z,97890.92
2019-02-11T09:14:54.154Z,97877.94
2019-02-11T09:17:20.936Z,97885.77
2019-02-11T09:19:49.568Z,97897.09
2019-02-11T09:22:16.236Z,97899.00
2019-02-11T09:24:43.807Z,97897.31
2019-02-11T09:27:10.679Z,97875.76
2019-02-11T09:29:37.288Z,97874.33
2019-02-11T09:32:04.417Z,97866.77
2019-02-11T09:34:31.354Z,97857.97
2019-02-11T09:36:58.211Z,97873.66
2019-02-11T09:39:25.140Z,97868.44
2019-02-11T09:41:51.840Z,97890.89
2019-02-11T09:44:18.364Z,97893.20
2019-02-11T09:46:45.122Z,97899.88
2019-02-11T09:49:11.843Z,97904.23
2019-02-11T09:51:41.840Z,97916.75
2019-02-11T09:54:08.871Z,97916.37
2019-02-11T09:56:36.075Z,97920.59
2019-02-11T09:59:03.398Z,97935.39
2019-02-11T10:01:32.831Z,97943.20
2019-02-11T10:03:59.981Z,97945.81
2019-02-11T10:06:26.820Z,97935.50
2019-02-11T10:08:53.737Z,97957.34
2019-02-11T10:11:20.772Z,97970.31
2019-02-11T10:13:47.674Z,97963.38
2019-02-11T10:16:14.691Z,97977.30
2019-02-11T10:18:43.691Z,97982.92
2019-02-11T10:21:11.006Z,97988.50
2019-02-11T10:23:38.017Z,97991.89
2019-02-11T10:26:04.974Z,98008.78
2019-02-11T10:28:40.339Z,98012.61
2019-02-11T10:31:08.610Z,98008.77
2019-02-11T10:33:35.321Z,98020.58
2019-02-11T10:36:03.209Z,98013.57
2019-02-11T10:38:36.250Z,98028.34
2019-02-11T10:40:58.664Z,98038.83
2019-02-11T10:43:25.304Z,98035.08
2019-02-11T10:45:52.153Z,98029.38
2019-02-11T10:48:18.985Z,98036.45
2019-02-11T10:50:45.601Z,98047.80
2019-02-11T10:53:12.303Z,98060.70
2019-02-11T10:55:39.205Z,98059.35
2019-02-11T10:58:05.929Z,98062.04
2019-02-11T11:00:32.885Z,98075.01
2019-02-11T11:02:59.802Z,98062.59
2019-02-11T11:05:26.612Z,98063.00
2019-02-11T11:07:53.421Z,98071.55
2019-02-11T11:10:24.066Z,98075.52
2019-02-11T11:12:50.831Z,98074.84
2019-02-11T11:15:17.914Z,98087.48
2019-02-11T11:17:46.572Z,98083.23
2019-02-11T11:20:14.524Z,98082.54
2019-02-11T11:22:41.230Z,98086.48
2019-02-11T11:25:08.590Z,98089.98
2019-02-11T11:27:35.567Z,98098.67
2019-02-11T11:30:02.484Z,98099.31
2019-02-11T11:32:29.399Z,98107.56
2019-02-11T11:34:56.114Z,98107.97
2019-02-11T11:37:22.841Z,98106.14
2019-02-11T11:39:49.927Z,98123.93
2019-02-11T11:42:16.630Z,98123.59
2019-02-11T11:44:43.754Z,98118.92
2019-02-11T11:47:10.447Z,98127.30
2019-02-11T11:49:37.466Z,98123.44
2019-02-11T11:52:04.471Z,98139.89
2019-02-11T11:54:30.998Z,98138.97
2019-02-11T11:56:59.457Z,98151.41
2019-02-11T11:59:26.504Z,98146.90
2019-02-11T12:02:00.408Z,98173.98
2019-02-11T12:04:27.553Z,98171.44
2019-02-11T12:06:54.131Z,98170.30
2019-02-11T12:09:20.799Z,98176.67
2019-02-11T12:11:47.394Z,98193.01
2019-02-11T12:14:14.376Z,98195.03
2019-02-11T12:16:56.137Z,98192.90
2019-02-11T12:19:13.803Z,98205.97
2019-02-11T12:21:40.536Z,98209.85
2019-02-11T12:24:07.273Z,98220.75
2019-02-11T12:26:33.873Z,98214.98
2019-02-11T12:29:00.721Z,98221.68
2019-02-11T12:31:27.609Z,98224.83
2019-02-11T12:33:54.511Z,98224.02
2019-02-11T12:36:21.126Z,98225.25
2019-02-11T12:38:47.827Z,98218.98
2019-02-11T12:41:14.593Z,98234.73
2019-02-11T12:43:41.301Z,98231.85
2019-02-11T12:46:07.898Z,98230.60
2019-02-11T12:48:34.898Z,98242.47
2019-02-11T12:51:01.583Z,98233.88
2019-02-11T12:53:28.313Z,98252.12
2019-02-11T12:55:55.259Z,98260.86
2019-02-11T12:58:23.017Z,98260.86
2019-02-11T13:00:49.663Z,98273.09
2019-02-11T13:03:17.751Z,98271.81
2019-02-11T13:05:46.337Z,98275.77
2019-02-11T13:08:13.719Z,98272.35
2019-02-11T13:10:42.833Z,98286.75
2019-02-11T13:13:09.646Z,98284.23
2019-02-11T13:15:58.583Z,98294.23
2019-02-11T13:18:05.568Z,98287.20
2019-02-11T13:20:32.411Z,98291.89
2019-02-11T13:23:02.302Z,98290.62
2019-02-11T13:25:42.241Z,98293.30
2019-02-11T13:28:10.561Z,98285.41
2019-02-11T13:30:37.445Z,98290.94
2019-02-11T13:33:04.814Z,98289.27
2019-02-11T13:35:31.927Z,98287.36
2019-02-11T13:38:03.175Z,98298.81
2019-02-11T13:40:33.859Z,98295.95
2019-02-11T13:43:02.315Z,98309.13
2019-02-11T13:45:48.934Z,98319.63
2019-02-11T13:48:06.930Z,98317.55
2019-02-11T13:50:34.317Z,98322.36
2019-02-11T13:53:00.958Z,98317.05
2019-02-11T13:55:30.470Z,98323.94
2019-02-11T13:57:57.087Z,98339.23
2019-02-11T14:00:33.908Z,98342.78
2019-02-11T14:03:05.935Z,98353.67
2019-02-11T14:05:40.473Z,98359.77
2019-02-11T14:08:11.442Z,98357.16
2019-02-11T14:10:44.486Z,98368.03
2019-02-11T14:13:13.589Z,98368.91
2019-02-11T14:15:54.555Z,98378.47
2019-02-11T14:18:25.771Z,98391.59
2019-02-11T14:21:01.730Z,98410.28
2019-02-11T14:23:35.284Z,98408.55
2019-02-11T14:26:02.025Z,98425.05
2019-02-11T14:28:29.074Z,98430.25
2019-02-11T14:31:00.410Z,98424.18
2019-02-11T14:33:28.556Z,98425.05
2019-02-11T14:35:56.430Z,98435.45
2019-02-11T14:38:29.721Z,98449.78
2019-02-11T14:40:57.836Z,98462.77
2019-02-11T14:43:24.964Z,98453.23
2019-02-11T14:45:55.328Z,98441.52
2019-02-11T14:48:28.122Z,98453.23
2019-02-11T14:50:59.198Z,98465.78
2019-02-11T14:53:41.765Z,98466.22
2019-02-11T14:56:12.795Z,98472.27
2019-02-11T14:58:42.911Z,98471.36
2019-02-11T15:01:12.291Z,98474.86
2019-02-11T15:03:38.909Z,98482.66
2019-02-11T15:06:05.741Z,98474.03
2019-02-11T15:08:33.987Z,98490.48
2019-02-11T15:11:02.563Z,98488.77
2019-02-11T15:13:42.373Z,98505.68
2019-02-11T15:16:13.064Z,98519.55
2019-02-11T15:18:44.100Z,98511.32
2019-02-11T15:21:10.864Z,98531.21
2019-02-11T15:23:39.259Z,98536.41
2019-02-11T15:26:14.282Z,98540.29
2019-02-11T15:28:43.964Z,98544.19
2019-02-11T15:31:20.749Z,98545.92
2019-02-11T15:33:52.548Z,98559.79
2019-02-11T15:36:20.232Z,98563.25
2019-02-11T15:38:50.499Z,98564.55
2019-02-11T15:41:17.077Z,98574.05
2019-02-11T15:43:44.025Z,98577.95
2019-02-11T15:46:14.515Z,98581.85
2019-02-11T15:48:43.074Z,98589.18
2019-02-11T15:51:12.730Z,98602.17
2019-02-11T15:53:40.094Z,98605.17
2019-02-11T15:56:35.483Z,98613.34
2019-02-11T15:59:09.168Z,98625.91
2019-02-11T16:01:37.537Z,98628.08
2019-02-11T16:04:07.826Z,98646.70
2019-02-11T16:06:38.343Z,98649.34
2019-02-11T16:09:06.210Z,98644.58
2019-02-11T16:11:33.158Z,98654.11
2019-02-11T16:14:02.611Z,98660.56
2019-02-11T16:16:29.430Z,98673.99
2019-02-11T16:18:57.658Z,98676.58
2019-02-11T16:21:24.685Z,98673.94
2019-02-11T16:24:00.264Z,98687.30
2019-02-11T16:26:34.734Z,98698.55
2019-02-11T16:29:02.837Z,98714.13
2019-02-11T16:31:34.255Z,98713.70
2019-02-11T16:34:03.197Z,98720.98
2019-02-11T16:36:34.117Z,98718.75
2019-02-11T16:39:04.677Z,98725.53
2019-02-11T16:41:31.217Z,98723.66
2019-02-11T16:43:59.792Z,98723.97
2019-02-11T16:46:26.718Z,98732.05
2019-02-11T16:49:00.388Z,98741.91
2019-02-11T16:51:21.803Z,98737.98
2019-02-11T16:53:48.602Z,98744.39
2019-02-11T16:56:15.205Z,98754.72
2019-02-11T16:58:41.921Z,98752.48
2019-02-11T17:01:08.668Z,98752.48
2019-02-11T17:03:35.206Z,98765.42
2019-02-11T17:06:01.723Z,98768.40
2019-02-11T17:08:28.291Z,98770.55
2019-02-11T17:10:54.850Z,98780.89
2019-02-11T17:13:21.827Z,98782.10
2019-02-11T17:15:48.758Z,98787.73
2019-02-11T17:18:15.288Z,98787.80
2019-02-11T17:20:41.871Z,98787.73
2019-02-11T17:23:08.686Z,98802.38
2019-02-11T17:25:35.250Z,98821.41
2019-02-11T17:28:01.766Z,98837.10
2019-02-11T17:30:28.546Z,98846.75
2019-02-11T17:32:55.280Z,98854.59
2019-02-11T17:35:22.029Z,98854.98
2019-02-11T17:37:48.822Z,98857.14
2019-02-11T17:40:15.353Z,98868.39
2019-02-11T17:42:41.845Z,98865.37
2019-02-11T17:45:11.749Z,98874.95
2019-02-11T17:47:38.223Z,98882.34
2019-02-11T17:50:06.132Z,98892.69
2019-02-11T17:52:32.778Z,98903.84
2019-02-11T17:55:01.194Z,98897.72
2019-02-11T17:57:27.653Z,98905.86
2019-02-11T17:59:54.285Z,98908.02
2019-02-11T18:02:20.865Z,98925.73
2019-02-11T18:04:47.334Z,98927.50
2019-02-11T18:07:13.822Z,98935.22
2019-02-11T18:09:44.646Z,98937.80
2019-02-11T18:12:11.699Z,98939.89
2019-02-11T18:14:38.240Z,98948.94
2019-02-11T18:17:05.300Z,98950.97
2019-02-11T18:19:32.023Z,98957.50
2019-02-11T18:22:02.992Z,98966.53
2019-02-11T18:24:29.663Z,98972.01
2019-02-11T18:26:56.354Z,98974.13
2019-02-11T18:29:23.122Z,98988.82
2019-02-11T18:31:49.971Z,98991.48
2019-02-11T18:34:17.484Z,98999.80
2019-02-11T18:36:45.297Z,99009.45
2019-02-11T18:39:12.140Z,99015.90
2019-02-11T18:41:38.849Z,99012.50
2019-02-11T18:44:06.142Z,99032.89
2019-02-11T18:46:32.987Z,99032.48
2019-02-11T18:48:59.476Z,99036.08
2019-02-11T18:51:27.051Z,99030.38
2019-02-11T18:53:53.608Z,99057.70
2019-02-11T18:56:20.303Z,99057.70
2019-02-11T18:58:47.169Z,99067.22
2019-02-11T19:01:13.741Z,99067.80
2019-02-11T19:03:43.129Z,99071.27
2019-02-11T19:06:09.689Z,99080.70
2019-02-11T19:08:36.286Z,99092.78
2019-02-11T19:11:03.276Z,99098.68
2019-02-11T19:13:32.640Z,99095.92
2019-02-11T19:16:00.873Z,99097.48
2019-02-11T19:18:27.357Z,99108.27
2019-02-11T19:20:54.819Z,99110.35
2019-02-11T19:23:21.574Z,99115.14
2019-02-11T19:25:49.471Z,99121.73
2019-02-11T19:28:17.626Z,99119.48
2019-02-11T19:30:44.167Z,99110.75
2019-02-11T19:33:11.017Z,99116.39
2019-02-11T19:35:38.835Z,99113.64
2019-02-11T19:38:05.458Z,99116.66
2019-02-11T19:40:36.722Z,99120.66
2019-02-11T19:43:03.381Z,99133.17
2019-02-11T19:45:41.135Z,99137.34
2019-02-11T19:48:09.226Z,99150.15
2019-02-11T19:50:36.756Z,99146.57
2019-02-11T19:53:05.523Z,99152.50
2019-02-11T19:55:32.203Z,99152.52
2019-02-11T19:58:00.922Z,99166.16
2019-02-11T20:00:31.809Z,99167.34
2019-02-11T20:03:01.665Z,99171.20
2019-02-11T20:05:28.319Z,99179.02
2019-02-11T20:07:55.779Z,99177.84
2019-02-11T20:10:23.173Z,99182.07
2019-02-11T20:12:53.065Z,99188.09
2019-02-11T20:15:20.779Z,99181.70
2019-02-11T20:17:47.547Z,99177.48
2019-02-11T20:20:17.900Z,99171.20
2019-02-11T20:22:44.401Z,99174.91
2019-02-11T20:25:11.119Z,99167.11
2019-02-11T20:27:37.764Z,99169.61
2019-02-11T20:30:06.113Z,99179.16
2019-02-11T20:32:32.898Z,99180.81
2019-02-11T20:34:59.509Z,99186.20
2019-02-11T20:37:28.397Z,99193.41
2019-02-11T20:40:03.150Z,99201.45
2019-02-11T20:42:26.800Z,99209.77
2019-02-11T20:44:53.712Z,99220.38
2019-02-11T20:47:20.312Z,99222.55
2019-02-11T20:49:46.939Z,99227.66
2019-02-11T20:52:13.497Z,99232.24
2019-02-11T20:54:41.539Z,99238.48
2019-02-11T20:57:08.070Z,99241.19
2019-02-11T20:59:34.831Z,99243.47
2019-02-11T21:02:01.652Z,99248.95
2019-02-11T21:04:36.475Z,99251.99
2019-02-11T21:07:04.671Z,99255.55
2019-02-11T21:09:31.278Z,99255.13
2019-02-11T21:11:58.082Z,99262.11
2019-02-11T21:14:25.460Z,99257.41
2019-02-11T21:16:52.367Z,99259.60
2019-02-11T21:19:18.938Z,99259.52
2019-02-11T21:21:45.422Z,99262.98
2019-02-11T21:24:12.002Z,99258.73
2019-02-11T21:26:38.587Z,99255.69
2019-02-11T21:29:05.126Z,99253.48
2019-02-11T21:31:31.863Z,99263.34
2019-02-11T21:33:58.399Z,99263.30
2019-02-11T21:36:24.914Z,99263.74
2019-02-11T21:38:51.796Z,99262.73
2019-02-11T21:41:18.292Z,99260.98
2019-02-11T21:43:47.230Z,99266.53
2019-02-11T21:46:15.486Z,99261.07
2019-02-11T21:48:42.025Z,99269.63
2019-02-11T21:51:08.745Z,99267.41
2019-02-11T21:53:37.393Z,99272.73
2019-02-11T21:56:05.932Z,99280.12
2019-02-11T21:58:32.552Z,99280.12
2019-02-11T22:01:02.423Z,99287.50
2019-02-11T22:03:28.177Z,99289.40
2019-02-11T22:05:55.211Z,99285.51
2019-02-11T22:08:21.755Z,99290.09
2019-02-11T22:10:48.328Z,99288.33
2019-02-11T22:13:15.255Z,99291.54
2019-02-11T22:15:43.929Z,99305.33
2019-02-11T22:18:10.431Z,99300.08
2019-02-11T22:20:36.930Z,99316.52
2019-02-11T22:23:03.498Z,99316.57
2019-02-11T22:25:30.237Z,99315.78
2019-02-11T22:27:56.759Z,99317.63
2019-02-11T22:30:23.428Z,99324.11
2019-02-11T22:32:52.388Z,99327.06
2019-02-11T22:35:20.909Z,99326.36
2019-02-11T22:37:47.882Z,99320.42
2019-02-11T22:40:14.444Z,99329.50
2019-02-11T22:42:41.241Z,99330.77
2019-02-11T22:45:15.757Z,99325.52
2019-02-11T22:47:44.270Z,99328.93
2019-02-11T22:50:19.833Z,99335.53
2019-02-11T22:52:47.046Z,99331.55
2019-02-11T22:55:13.958Z,99340.18
2019-02-11T22:57:40.648Z,99346.66
2019-02-11T23:00:25.073Z,99353.94
2019-02-11T23:02:51.565Z,99356.53
2019-02-11T23:05:18.181Z,99379.09
2019-02-11T23:07:44.705Z,99367.38
2019-02-11T23:10:11.365Z,99370.03
2019-02-11T23:12:37.976Z,99367.02
2019-02-11T23:15:04.729Z,99372.70
2019-02-11T23:17:31.420Z,99379.99
2019-02-11T23:19:58.033Z,99383.95
2019-02-11T23:22:24.778Z,99386.87
2019-02-11T23:24:51.490Z,99392.00
2019-02-11T23:27:18.077Z,99401.14
2019-02-11T23:29:46.142Z,99400.32
2019-02-11T23:32:12.655Z,99390.76
2019-02-11T23:34:39.180Z,99392.90
2019-02-11T23:37:06.044Z,99393.72
2019-02-11T23:39:32.722Z,99404.58
2019-02-11T23:41:59.465Z,99395.44
2019-02-11T23:44:26.538Z,99407.56
2019-02-11T23:46:53.093Z,99417.03
2019-02-11T23:49:19.862Z,99413.92
2019-02-11T23:51:46.800Z,99417.03
2019-02-11T23:54:14.946Z,99412.17
2019-02-11T23:56:41.527Z,99408.31
2019-02-11T23:59:08.138Z,99421.28
